sensor_id;sensor_type;location;lat;lon;timestamp;temperature;humidity
4687;DHT22;2357;47.316;-1.348;2023-06-26T00:01:31;22.70;99.90
4687;DHT22;2357;47.316;-1.348;2023-06-26T00:03:57;22.60;99.90
4687;DHT22;2357;47.316;-1.348;2023-06-26T00:06:24;22.70;99.90
4687;DHT22;2357;47.316;-1.348;2023-06-26T00:08:52;22.70;99.90
4687;DHT22;2357;47.316;-1.348;2023-06-26T00:11:19;22.80;99.90
4687;DHT22;2357;47.316;-1.348;2023-06-26T00:13:44;22.40;99.90
4687;DHT22;2357;47.316;-1.348;2023-06-26T00:16:10;22.40;99.90
4687;DHT22;2357;47.316;-1.348;2023-06-26T00:18:35;22.50;99.90
4687;DHT22;2357;47.316;-1.348;2023-06-26T00:21:01;22.70;99.90
4687;DHT22;2357;47.316;-1.348;2023-06-26T00:23:27;22.50;99.90
4687;DHT22;2357;47.316;-1.348;2023-06-26T00:25:57;22.70;99.90
4687;DHT22;2357;47.316;-1.348;2023-06-26T00:28:23;22.80;99.90
4687;DHT22;2357;47.316;-1.348;2023-06-26T00:30:48;22.80;99.90
4687;DHT22;2357;47.316;-1.348;2023-06-26T00:33:14;22.70;99.90
4687;DHT22;2357;47.316;-1.348;2023-06-26T00:35:40;22.80;99.90
4687;DHT22;2357;47.316;-1.348;2023-06-26T00:38:06;22.70;99.90
4687;DHT22;2357;47.316;-1.348;2023-06-26T00:40:32;22.40;99.90
4687;DHT22;2357;47.316;-1.348;2023-06-26T00:42:57;22.60;99.90
4687;DHT22;2357;47.316;-1.348;2023-06-26T00:45:23;22.50;99.90
4687;DHT22;2357;47.316;-1.348;2023-06-26T00:47:49;22.40;99.90
4687;DHT22;2357;47.316;-1.348;2023-06-26T00:50:14;22.50;99.90
4687;DHT22;2357;47.316;-1.348;2023-06-26T00:52:43;22.40;99.90
4687;DHT22;2357;47.316;-1.348;2023-06-26T00:55:09;22.30;99.90
4687;DHT22;2357;47.316;-1.348;2023-06-26T00:57:35;22.30;99.90
4687;DHT22;2357;47.316;-1.348;2023-06-26T01:00:01;22.30;99.90
4687;DHT22;2357;47.316;-1.348;2023-06-26T01:02:29;22.20;99.90
4687;DHT22;2357;47.316;-1.348;2023-06-26T01:04:59;22.20;99.90
4687;DHT22;2357;47.316;-1.348;2023-06-26T01:07:25;22.20;99.90
4687;DHT22;2357;47.316;-1.348;2023-06-26T01:09:51;22.10;99.90
4687;DHT22;2357;47.316;-1.348;2023-06-26T01:12:17;22.10;99.90
4687;DHT22;2357;47.316;-1.348;2023-06-26T01:14:42;22.00;99.90
4687;DHT22;2357;47.316;-1.348;2023-06-26T01:17:09;22.00;99.90
4687;DHT22;2357;47.316;-1.348;2023-06-26T01:19:41;21.90;99.90
4687;DHT22;2357;47.316;-1.348;2023-06-26T01:28:07;21.70;99.90
4687;DHT22;2357;47.316;-1.348;2023-06-26T01:30:37;21.70;99.90
4687;DHT22;2357;47.316;-1.348;2023-06-26T01:33:03;21.60;99.90
4687;DHT22;2357;47.316;-1.348;2023-06-26T01:35:29;21.50;99.90
4687;DHT22;2357;47.316;-1.348;2023-06-26T01:38:20;21.50;99.90
4687;DHT22;2357;47.316;-1.348;2023-06-26T01:40:46;21.50;99.90
4687;DHT22;2357;47.316;-1.348;2023-06-26T01:45:46;21.30;99.90
4687;DHT22;2357;47.316;-1.348;2023-06-26T01:48:13;21.30;99.90
4687;DHT22;2357;47.316;-1.348;2023-06-26T01:50:42;21.20;99.90
4687;DHT22;2357;47.316;-1.348;2023-06-26T01:53:18;21.20;99.90
4687;DHT22;2357;47.316;-1.348;2023-06-26T01:55:59;21.10;99.90
4687;DHT22;2357;47.316;-1.348;2023-06-26T01:58:27;21.10;99.90
4687;DHT22;2357;47.316;-1.348;2023-06-26T02:00:53;21.10;99.90
4687;DHT22;2357;47.316;-1.348;2023-06-26T02:03:19;21.00;99.90
4687;DHT22;2357;47.316;-1.348;2023-06-26T02:05:45;21.10;99.90
4687;DHT22;2357;47.316;-1.348;2023-06-26T02:08:14;21.00;99.90
4687;DHT22;2357;47.316;-1.348;2023-06-26T02:10:43;21.00;99.90
4687;DHT22;2357;47.316;-1.348;2023-06-26T02:13:09;21.00;99.90
4687;DHT22;2357;47.316;-1.348;2023-06-26T02:15:34;20.90;99.90
4687;DHT22;2357;47.316;-1.348;2023-06-26T02:18:00;20.90;99.90
4687;DHT22;2357;47.316;-1.348;2023-06-26T02:20:25;20.90;99.90
4687;DHT22;2357;47.316;-1.348;2023-06-26T02:22:51;20.80;99.90
4687;DHT22;2357;47.316;-1.348;2023-06-26T02:25:17;20.80;99.90
4687;DHT22;2357;47.316;-1.348;2023-06-26T02:27:43;20.70;99.90
4687;DHT22;2357;47.316;-1.348;2023-06-26T02:30:09;20.70;99.90
4687;DHT22;2357;47.316;-1.348;2023-06-26T02:32:35;20.60;99.90
4687;DHT22;2357;47.316;-1.348;2023-06-26T02:35:01;20.60;99.90
4687;DHT22;2357;47.316;-1.348;2023-06-26T02:37:27;20.60;99.90
4687;DHT22;2357;47.316;-1.348;2023-06-26T02:39:52;20.60;99.90
4687;DHT22;2357;47.316;-1.348;2023-06-26T02:42:18;20.50;99.90
4687;DHT22;2357;47.316;-1.348;2023-06-26T02:44:43;20.50;99.90
4687;DHT22;2357;47.316;-1.348;2023-06-26T02:47:09;20.50;99.90
4687;DHT22;2357;47.316;-1.348;2023-06-26T02:49:35;20.40;99.90
4687;DHT22;2357;47.316;-1.348;2023-06-26T02:52:00;20.30;99.90
4687;DHT22;2357;47.316;-1.348;2023-06-26T02:54:26;20.30;99.90
4687;DHT22;2357;47.316;-1.348;2023-06-26T02:56:51;20.30;99.90
4687;DHT22;2357;47.316;-1.348;2023-06-26T02:59:17;20.30;99.90
4687;DHT22;2357;47.316;-1.348;2023-06-26T03:01:43;20.30;99.90
4687;DHT22;2357;47.316;-1.348;2023-06-26T03:04:10;20.30;99.90
4687;DHT22;2357;47.316;-1.348;2023-06-26T03:06:36;20.30;99.90
4687;DHT22;2357;47.316;-1.348;2023-06-26T03:09:02;20.30;99.90
4687;DHT22;2357;47.316;-1.348;2023-06-26T03:11:28;20.30;99.90
4687;DHT22;2357;47.316;-1.348;2023-06-26T03:13:54;20.30;99.90
4687;DHT22;2357;47.316;-1.348;2023-06-26T03:16:19;20.20;99.90
4687;DHT22;2357;47.316;-1.348;2023-06-26T03:18:45;20.10;99.90
4687;DHT22;2357;47.316;-1.348;2023-06-26T03:21:11;20.10;99.90
4687;DHT22;2357;47.316;-1.348;2023-06-26T03:23:36;20.00;99.90
4687;DHT22;2357;47.316;-1.348;2023-06-26T03:26:02;20.10;99.90
4687;DHT22;2357;47.316;-1.348;2023-06-26T03:28:27;20.00;99.90
4687;DHT22;2357;47.316;-1.348;2023-06-26T03:30:53;20.10;99.90
4687;DHT22;2357;47.316;-1.348;2023-06-26T03:33:19;20.00;99.90
4687;DHT22;2357;47.316;-1.348;2023-06-26T03:35:44;19.90;99.90
4687;DHT22;2357;47.316;-1.348;2023-06-26T03:38:10;20.00;99.90
4687;DHT22;2357;47.316;-1.348;2023-06-26T03:40:36;19.90;99.90
4687;DHT22;2357;47.316;-1.348;2023-06-26T03:43:01;19.80;99.90
4687;DHT22;2357;47.316;-1.348;2023-06-26T03:45:28;19.80;99.90
4687;DHT22;2357;47.316;-1.348;2023-06-26T03:47:53;19.80;99.90
4687;DHT22;2357;47.316;-1.348;2023-06-26T03:50:19;19.70;99.90
4687;DHT22;2357;47.316;-1.348;2023-06-26T03:52:45;19.70;99.90
4687;DHT22;2357;47.316;-1.348;2023-06-26T03:55:11;19.70;99.90
4687;DHT22;2357;47.316;-1.348;2023-06-26T03:57:37;19.70;99.90
4687;DHT22;2357;47.316;-1.348;2023-06-26T04:00:03;19.60;99.90
4687;DHT22;2357;47.316;-1.348;2023-06-26T04:02:34;19.60;99.90
4687;DHT22;2357;47.316;-1.348;2023-06-26T04:05:00;19.60;99.90
4687;DHT22;2357;47.316;-1.348;2023-06-26T04:07:26;19.50;99.90
4687;DHT22;2357;47.316;-1.348;2023-06-26T04:09:51;19.50;99.90
4687;DHT22;2357;47.316;-1.348;2023-06-26T04:12:17;19.40;99.90
4687;DHT22;2357;47.316;-1.348;2023-06-26T04:14:43;19.40;99.90
4687;DHT22;2357;47.316;-1.348;2023-06-26T04:17:08;19.40;99.90
4687;DHT22;2357;47.316;-1.348;2023-06-26T04:19:34;19.40;99.90
4687;DHT22;2357;47.316;-1.348;2023-06-26T04:22:01;19.30;99.90
4687;DHT22;2357;47.316;-1.348;2023-06-26T04:24:27;19.40;99.90
4687;DHT22;2357;47.316;-1.348;2023-06-26T04:26:52;19.40;99.90
4687;DHT22;2357;47.316;-1.348;2023-06-26T04:29:18;19.30;99.90
4687;DHT22;2357;47.316;-1.348;2023-06-26T04:31:43;19.30;99.90
4687;DHT22;2357;47.316;-1.348;2023-06-26T04:34:13;19.30;99.90
4687;DHT22;2357;47.316;-1.348;2023-06-26T04:36:38;19.30;99.90
4687;DHT22;2357;47.316;-1.348;2023-06-26T04:39:05;19.30;99.90
4687;DHT22;2357;47.316;-1.348;2023-06-26T04:41:30;19.30;99.90
4687;DHT22;2357;47.316;-1.348;2023-06-26T04:43:56;19.30;99.90
4687;DHT22;2357;47.316;-1.348;2023-06-26T04:46:21;19.20;99.90
4687;DHT22;2357;47.316;-1.348;2023-06-26T04:48:47;19.30;99.90
4687;DHT22;2357;47.316;-1.348;2023-06-26T04:51:12;19.30;99.90
4687;DHT22;2357;47.316;-1.348;2023-06-26T04:53:38;19.30;99.90
4687;DHT22;2357;47.316;-1.348;2023-06-26T04:56:04;19.20;99.90
4687;DHT22;2357;47.316;-1.348;2023-06-26T04:58:30;19.30;99.90
4687;DHT22;2357;47.316;-1.348;2023-06-26T05:00:55;19.30;99.90
4687;DHT22;2357;47.316;-1.348;2023-06-26T05:03:22;19.30;99.90
4687;DHT22;2357;47.316;-1.348;2023-06-26T05:05:47;19.20;99.90
4687;DHT22;2357;47.316;-1.348;2023-06-26T05:08:18;19.30;99.90
4687;DHT22;2357;47.316;-1.348;2023-06-26T05:10:44;19.30;99.90
4687;DHT22;2357;47.316;-1.348;2023-06-26T05:13:10;19.30;99.90
4687;DHT22;2357;47.316;-1.348;2023-06-26T05:15:36;19.30;99.90
4687;DHT22;2357;47.316;-1.348;2023-06-26T05:18:02;19.40;99.90
4687;DHT22;2357;47.316;-1.348;2023-06-26T05:20:28;19.40;99.90
4687;DHT22;2357;47.316;-1.348;2023-06-26T05:22:54;19.40;99.90
4687;DHT22;2357;47.316;-1.348;2023-06-26T05:25:20;19.40;99.90
4687;DHT22;2357;47.316;-1.348;2023-06-26T05:27:47;19.50;99.90
4687;DHT22;2357;47.316;-1.348;2023-06-26T05:30:13;19.50;99.90
4687;DHT22;2357;47.316;-1.348;2023-06-26T05:32:40;19.60;99.90
4687;DHT22;2357;47.316;-1.348;2023-06-26T05:35:06;19.60;99.90
4687;DHT22;2357;47.316;-1.348;2023-06-26T05:37:33;19.60;99.90
4687;DHT22;2357;47.316;-1.348;2023-06-26T05:40:00;19.70;99.90
4687;DHT22;2357;47.316;-1.348;2023-06-26T05:42:27;19.70;99.90
4687;DHT22;2357;47.316;-1.348;2023-06-26T05:44:53;19.60;99.90
4687;DHT22;2357;47.316;-1.348;2023-06-26T05:47:19;19.70;99.90
4687;DHT22;2357;47.316;-1.348;2023-06-26T05:49:45;19.60;99.90
4687;DHT22;2357;47.316;-1.348;2023-06-26T05:52:11;19.70;99.90
4687;DHT22;2357;47.316;-1.348;2023-06-26T05:54:37;19.60;99.90
4687;DHT22;2357;47.316;-1.348;2023-06-26T05:57:03;19.50;99.90
4687;DHT22;2357;47.316;-1.348;2023-06-26T05:59:33;19.50;99.90
4687;DHT22;2357;47.316;-1.348;2023-06-26T06:02:02;19.30;99.90
4687;DHT22;2357;47.316;-1.348;2023-06-26T06:04:28;19.50;99.90
4687;DHT22;2357;47.316;-1.348;2023-06-26T06:06:53;19.60;99.90
4687;DHT22;2357;47.316;-1.348;2023-06-26T06:09:19;19.60;99.90
4687;DHT22;2357;47.316;-1.348;2023-06-26T06:11:44;19.60;99.90
4687;DHT22;2357;47.316;-1.348;2023-06-26T06:14:10;19.70;99.90
4687;DHT22;2357;47.316;-1.348;2023-06-26T06:16:36;19.60;99.90
4687;DHT22;2357;47.316;-1.348;2023-06-26T06:19:01;19.60;99.90
4687;DHT22;2357;47.316;-1.348;2023-06-26T06:21:28;19.60;99.90
4687;DHT22;2357;47.316;-1.348;2023-06-26T06:23:54;19.60;99.90
4687;DHT22;2357;47.316;-1.348;2023-06-26T06:26:20;19.60;99.90
4687;DHT22;2357;47.316;-1.348;2023-06-26T06:28:45;19.70;99.90
4687;DHT22;2357;47.316;-1.348;2023-06-26T06:31:11;19.70;99.90
4687;DHT22;2357;47.316;-1.348;2023-06-26T06:33:36;19.80;99.90
4687;DHT22;2357;47.316;-1.348;2023-06-26T06:36:02;19.70;99.90
4687;DHT22;2357;47.316;-1.348;2023-06-26T06:38:28;19.70;99.90
4687;DHT22;2357;47.316;-1.348;2023-06-26T06:40:53;19.80;99.90
4687;DHT22;2357;47.316;-1.348;2023-06-26T06:43:19;19.70;99.90
4687;DHT22;2357;47.316;-1.348;2023-06-26T06:45:45;19.70;99.90
4687;DHT22;2357;47.316;-1.348;2023-06-26T06:48:10;19.80;99.90
4687;DHT22;2357;47.316;-1.348;2023-06-26T06:50:36;19.90;99.90
4687;DHT22;2357;47.316;-1.348;2023-06-26T06:53:02;20.00;99.90
4687;DHT22;2357;47.316;-1.348;2023-06-26T06:55:27;19.80;99.90
4687;DHT22;2357;47.316;-1.348;2023-06-26T06:57:53;19.80;99.90
4687;DHT22;2357;47.316;-1.348;2023-06-26T07:00:19;19.90;99.90
4687;DHT22;2357;47.316;-1.348;2023-06-26T07:02:45;19.90;99.90
4687;DHT22;2357;47.316;-1.348;2023-06-26T07:05:12;19.90;99.90
4687;DHT22;2357;47.316;-1.348;2023-06-26T07:07:38;20.00;99.90
4687;DHT22;2357;47.316;-1.348;2023-06-26T07:10:10;19.90;99.90
4687;DHT22;2357;47.316;-1.348;2023-06-26T07:12:36;20.00;99.90
4687;DHT22;2357;47.316;-1.348;2023-06-26T07:15:03;20.00;99.90
4687;DHT22;2357;47.316;-1.348;2023-06-26T07:17:30;20.10;99.90
4687;DHT22;2357;47.316;-1.348;2023-06-26T07:19:56;20.10;99.90
4687;DHT22;2357;47.316;-1.348;2023-06-26T07:22:22;20.00;99.90
4687;DHT22;2357;47.316;-1.348;2023-06-26T07:24:48;20.10;99.90
4687;DHT22;2357;47.316;-1.348;2023-06-26T07:27:17;20.10;99.90
4687;DHT22;2357;47.316;-1.348;2023-06-26T07:29:45;20.20;99.90
4687;DHT22;2357;47.316;-1.348;2023-06-26T07:32:11;20.20;99.90
4687;DHT22;2357;47.316;-1.348;2023-06-26T07:34:37;20.30;99.90
4687;DHT22;2357;47.316;-1.348;2023-06-26T07:37:03;20.30;99.90
4687;DHT22;2357;47.316;-1.348;2023-06-26T07:39:28;20.30;99.90
4687;DHT22;2357;47.316;-1.348;2023-06-26T07:41:54;20.40;99.90
4687;DHT22;2357;47.316;-1.348;2023-06-26T07:44:20;20.40;99.90
4687;DHT22;2357;47.316;-1.348;2023-06-26T07:46:45;20.50;99.90
4687;DHT22;2357;47.316;-1.348;2023-06-26T07:49:11;20.60;99.90
4687;DHT22;2357;47.316;-1.348;2023-06-26T07:51:37;20.50;99.90
4687;DHT22;2357;47.316;-1.348;2023-06-26T07:54:03;20.70;99.90
4687;DHT22;2357;47.316;-1.348;2023-06-26T07:56:28;20.60;99.90
4687;DHT22;2357;47.316;-1.348;2023-06-26T07:58:54;20.50;99.90
4687;DHT22;2357;47.316;-1.348;2023-06-26T08:01:20;20.50;99.90
4687;DHT22;2357;47.316;-1.348;2023-06-26T08:03:45;20.60;99.90
4687;DHT22;2357;47.316;-1.348;2023-06-26T08:06:11;20.60;99.90
4687;DHT22;2357;47.316;-1.348;2023-06-26T08:08:36;20.80;99.90
4687;DHT22;2357;47.316;-1.348;2023-06-26T08:11:02;20.90;99.90
4687;DHT22;2357;47.316;-1.348;2023-06-26T08:13:28;20.90;99.90
4687;DHT22;2357;47.316;-1.348;2023-06-26T08:15:53;21.00;99.90
4687;DHT22;2357;47.316;-1.348;2023-06-26T08:18:19;20.90;99.90
4687;DHT22;2357;47.316;-1.348;2023-06-26T08:20:45;21.10;99.90
4687;DHT22;2357;47.316;-1.348;2023-06-26T08:23:10;21.20;99.90
4687;DHT22;2357;47.316;-1.348;2023-06-26T08:25:36;21.30;99.90
4687;DHT22;2357;47.316;-1.348;2023-06-26T08:28:01;21.20;99.90
4687;DHT22;2357;47.316;-1.348;2023-06-26T08:30:27;21.30;99.90
4687;DHT22;2357;47.316;-1.348;2023-06-26T08:32:56;21.30;99.90
4687;DHT22;2357;47.316;-1.348;2023-06-26T08:35:22;21.40;99.90
4687;DHT22;2357;47.316;-1.348;2023-06-26T08:37:47;21.20;99.90
4687;DHT22;2357;47.316;-1.348;2023-06-26T08:40:16;21.20;99.90
4687;DHT22;2357;47.316;-1.348;2023-06-26T08:42:42;21.40;99.90
4687;DHT22;2357;47.316;-1.348;2023-06-26T08:45:08;21.50;99.90
4687;DHT22;2357;47.316;-1.348;2023-06-26T08:47:35;21.40;99.90
4687;DHT22;2357;47.316;-1.348;2023-06-26T08:50:21;21.50;99.90
4687;DHT22;2357;47.316;-1.348;2023-06-26T08:55:35;21.70;99.90
4687;DHT22;2357;47.316;-1.348;2023-06-26T08:58:04;21.90;99.90
4687;DHT22;2357;47.316;-1.348;2023-06-26T09:00:30;21.90;99.90
4687;DHT22;2357;47.316;-1.348;2023-06-26T09:02:56;22.00;99.90
4687;DHT22;2357;47.316;-1.348;2023-06-26T09:05:22;22.10;99.90
4687;DHT22;2357;47.316;-1.348;2023-06-26T09:07:47;22.00;99.90
4687;DHT22;2357;47.316;-1.348;2023-06-26T09:10:13;22.20;99.90
4687;DHT22;2357;47.316;-1.348;2023-06-26T09:12:39;22.30;99.90
4687;DHT22;2357;47.316;-1.348;2023-06-26T09:15:06;22.20;99.90
4687;DHT22;2357;47.316;-1.348;2023-06-26T09:17:38;22.30;99.90
4687;DHT22;2357;47.316;-1.348;2023-06-26T09:20:05;22.40;99.90
4687;DHT22;2357;47.316;-1.348;2023-06-26T09:22:36;22.40;99.90
4687;DHT22;2357;47.316;-1.348;2023-06-26T09:25:03;22.50;99.90
4687;DHT22;2357;47.316;-1.348;2023-06-26T09:27:29;22.80;99.90
4687;DHT22;2357;47.316;-1.348;2023-06-26T09:29:55;22.90;99.90
4687;DHT22;2357;47.316;-1.348;2023-06-26T09:32:24;22.90;99.90
4687;DHT22;2357;47.316;-1.348;2023-06-26T09:34:52;22.90;99.90
4687;DHT22;2357;47.316;-1.348;2023-06-26T09:37:18;22.80;99.90
4687;DHT22;2357;47.316;-1.348;2023-06-26T09:39:44;22.80;99.90
4687;DHT22;2357;47.316;-1.348;2023-06-26T09:42:10;22.80;99.90
4687;DHT22;2357;47.316;-1.348;2023-06-26T09:44:47;22.70;99.90
4687;DHT22;2357;47.316;-1.348;2023-06-26T09:47:16;22.50;99.90
4687;DHT22;2357;47.316;-1.348;2023-06-26T09:49:43;22.40;99.90
4687;DHT22;2357;47.316;-1.348;2023-06-26T09:52:09;22.50;99.90
4687;DHT22;2357;47.316;-1.348;2023-06-26T09:54:35;22.80;99.90
4687;DHT22;2357;47.316;-1.348;2023-06-26T09:57:08;23.00;99.90
4687;DHT22;2357;47.316;-1.348;2023-06-26T09:59:35;23.40;99.90
4687;DHT22;2357;47.316;-1.348;2023-06-26T10:02:01;23.60;99.90
4687;DHT22;2357;47.316;-1.348;2023-06-26T10:04:26;23.70;99.90
4687;DHT22;2357;47.316;-1.348;2023-06-26T10:06:56;23.50;99.90
4687;DHT22;2357;47.316;-1.348;2023-06-26T10:09:23;22.90;99.90
4687;DHT22;2357;47.316;-1.348;2023-06-26T10:12:08;22.30;99.90
4687;DHT22;2357;47.316;-1.348;2023-06-26T10:14:37;22.70;99.90
4687;DHT22;2357;47.316;-1.348;2023-06-26T10:17:09;23.10;99.90
4687;DHT22;2357;47.316;-1.348;2023-06-26T10:19:36;23.40;99.90
4687;DHT22;2357;47.316;-1.348;2023-06-26T10:22:02;23.50;99.90
4687;DHT22;2357;47.316;-1.348;2023-06-26T10:24:33;23.70;99.90
4687;DHT22;2357;47.316;-1.348;2023-06-26T10:27:03;23.70;99.90
4687;DHT22;2357;47.316;-1.348;2023-06-26T10:29:30;23.80;99.90
4687;DHT22;2357;47.316;-1.348;2023-06-26T10:31:58;23.80;99.90
4687;DHT22;2357;47.316;-1.348;2023-06-26T10:34:25;23.60;99.90
4687;DHT22;2357;47.316;-1.348;2023-06-26T10:37:01;23.20;99.90
4687;DHT22;2357;47.316;-1.348;2023-06-26T10:39:27;22.90;99.90
4687;DHT22;2357;47.316;-1.348;2023-06-26T10:42:08;22.70;99.90
4687;DHT22;2357;47.316;-1.348;2023-06-26T10:44:43;22.70;99.90
4687;DHT22;2357;47.316;-1.348;2023-06-26T10:47:09;22.80;99.90
4687;DHT22;2357;47.316;-1.348;2023-06-26T10:49:36;23.20;99.90
4687;DHT22;2357;47.316;-1.348;2023-06-26T10:52:02;23.40;99.90
4687;DHT22;2357;47.316;-1.348;2023-06-26T10:54:31;23.70;99.90
4687;DHT22;2357;47.316;-1.348;2023-06-26T10:56:57;23.70;99.90
4687;DHT22;2357;47.316;-1.348;2023-06-26T10:59:28;23.80;99.90
4687;DHT22;2357;47.316;-1.348;2023-06-26T11:02:01;23.70;99.90
4687;DHT22;2357;47.316;-1.348;2023-06-26T11:04:37;23.50;99.90
4687;DHT22;2357;47.316;-1.348;2023-06-26T11:07:20;23.30;99.90
4687;DHT22;2357;47.316;-1.348;2023-06-26T11:09:56;23.60;99.90
4687;DHT22;2357;47.316;-1.348;2023-06-26T11:12:41;24.30;99.90
4687;DHT22;2357;47.316;-1.348;2023-06-26T11:15:11;24.70;99.90
4687;DHT22;2357;47.316;-1.348;2023-06-26T11:17:38;24.90;99.90
4687;DHT22;2357;47.316;-1.348;2023-06-26T11:20:12;25.10;99.90
4687;DHT22;2357;47.316;-1.348;2023-06-26T11:22:40;24.80;99.90
4687;DHT22;2357;47.316;-1.348;2023-06-26T11:25:07;24.20;99.90
4687;DHT22;2357;47.316;-1.348;2023-06-26T11:27:43;24.00;99.90
4687;DHT22;2357;47.316;-1.348;2023-06-26T11:30:21;23.70;99.90
4687;DHT22;2357;47.316;-1.348;2023-06-26T11:32:47;24.30;99.90
4687;DHT22;2357;47.316;-1.348;2023-06-26T11:35:13;24.70;99.90
4687;DHT22;2357;47.316;-1.348;2023-06-26T11:37:47;24.70;99.90
4687;DHT22;2357;47.316;-1.348;2023-06-26T11:40:19;25.00;99.90
4687;DHT22;2357;47.316;-1.348;2023-06-26T11:42:45;25.20;99.90
4687;DHT22;2357;47.316;-1.348;2023-06-26T11:45:10;25.50;99.90
4687;DHT22;2357;47.316;-1.348;2023-06-26T11:47:38;25.70;99.90
4687;DHT22;2357;47.316;-1.348;2023-06-26T11:50:05;25.60;99.90
4687;DHT22;2357;47.316;-1.348;2023-06-26T11:52:32;25.60;99.90
4687;DHT22;2357;47.316;-1.348;2023-06-26T11:54:58;25.70;99.90
4687;DHT22;2357;47.316;-1.348;2023-06-26T11:57:24;25.50;99.90
4687;DHT22;2357;47.316;-1.348;2023-06-26T11:59:50;25.40;99.90
4687;DHT22;2357;47.316;-1.348;2023-06-26T12:02:16;25.60;99.90
4687;DHT22;2357;47.316;-1.348;2023-06-26T12:04:43;25.50;99.90
4687;DHT22;2357;47.316;-1.348;2023-06-26T12:07:10;25.70;99.90
4687;DHT22;2357;47.316;-1.348;2023-06-26T12:09:41;25.70;99.90
4687;DHT22;2357;47.316;-1.348;2023-06-26T12:12:08;26.20;99.90
4687;DHT22;2357;47.316;-1.348;2023-06-26T12:14:34;26.30;99.90
4687;DHT22;2357;47.316;-1.348;2023-06-26T12:17:11;26.70;99.90
4687;DHT22;2357;47.316;-1.348;2023-06-26T12:19:42;26.50;99.90
4687;DHT22;2357;47.316;-1.348;2023-06-26T12:22:09;26.10;99.90
4687;DHT22;2357;47.316;-1.348;2023-06-26T12:24:39;26.10;99.90
4687;DHT22;2357;47.316;-1.348;2023-06-26T12:27:13;26.40;99.90
4687;DHT22;2357;47.316;-1.348;2023-06-26T12:29:45;26.30;99.90
4687;DHT22;2357;47.316;-1.348;2023-06-26T12:32:12;26.80;99.90
4687;DHT22;2357;47.316;-1.348;2023-06-26T12:34:39;26.70;99.90
4687;DHT22;2357;47.316;-1.348;2023-06-26T12:37:09;26.70;99.90
4687;DHT22;2357;47.316;-1.348;2023-06-26T12:40:05;26.50;99.90
4687;DHT22;2357;47.316;-1.348;2023-06-26T12:42:41;26.60;99.90
4687;DHT22;2357;47.316;-1.348;2023-06-26T12:45:11;26.70;99.90
4687;DHT22;2357;47.316;-1.348;2023-06-26T12:47:37;27.20;99.90
4687;DHT22;2357;47.316;-1.348;2023-06-26T12:50:05;27.30;99.90
4687;DHT22;2357;47.316;-1.348;2023-06-26T12:52:31;27.50;99.90
4687;DHT22;2357;47.316;-1.348;2023-06-26T12:54:57;27.30;99.90
4687;DHT22;2357;47.316;-1.348;2023-06-26T12:57:23;27.10;99.90
4687;DHT22;2357;47.316;-1.348;2023-06-26T12:59:49;27.00;99.90
4687;DHT22;2357;47.316;-1.348;2023-06-26T13:02:14;26.50;99.90
4687;DHT22;2357;47.316;-1.348;2023-06-26T13:04:40;27.00;99.90
4687;DHT22;2357;47.316;-1.348;2023-06-26T13:07:09;26.60;99.90
4687;DHT22;2357;47.316;-1.348;2023-06-26T13:09:35;26.90;99.90
4687;DHT22;2357;47.316;-1.348;2023-06-26T13:12:03;27.00;99.90
4687;DHT22;2357;47.316;-1.348;2023-06-26T13:14:29;27.10;99.90
4687;DHT22;2357;47.316;-1.348;2023-06-26T13:16:55;27.20;99.90
4687;DHT22;2357;47.316;-1.348;2023-06-26T13:19:21;27.60;99.90
4687;DHT22;2357;47.316;-1.348;2023-06-26T13:21:47;27.50;99.90
4687;DHT22;2357;47.316;-1.348;2023-06-26T13:24:12;27.40;99.90
4687;DHT22;2357;47.316;-1.348;2023-06-26T13:26:38;27.30;99.90
4687;DHT22;2357;47.316;-1.348;2023-06-26T13:29:04;27.50;99.90
4687;DHT22;2357;47.316;-1.348;2023-06-26T13:31:30;27.40;99.90
4687;DHT22;2357;47.316;-1.348;2023-06-26T13:33:58;27.50;99.90
4687;DHT22;2357;47.316;-1.348;2023-06-26T13:36:23;27.50;99.90
4687;DHT22;2357;47.316;-1.348;2023-06-26T13:38:50;27.70;99.90
4687;DHT22;2357;47.316;-1.348;2023-06-26T13:41:24;27.50;99.90
4687;DHT22;2357;47.316;-1.348;2023-06-26T13:43:50;27.80;99.90
4687;DHT22;2357;47.316;-1.348;2023-06-26T13:46:16;27.70;99.90
4687;DHT22;2357;47.316;-1.348;2023-06-26T13:48:43;27.70;99.90
4687;DHT22;2357;47.316;-1.348;2023-06-26T13:51:08;27.80;99.90
4687;DHT22;2357;47.316;-1.348;2023-06-26T13:53:34;28.20;99.90
4687;DHT22;2357;47.316;-1.348;2023-06-26T13:55:59;28.40;99.90
4687;DHT22;2357;47.316;-1.348;2023-06-26T13:58:26;28.20;99.90
4687;DHT22;2357;47.316;-1.348;2023-06-26T14:00:53;28.50;99.90
4687;DHT22;2357;47.316;-1.348;2023-06-26T14:03:19;28.10;99.90
4687;DHT22;2357;47.316;-1.348;2023-06-26T14:05:45;28.00;99.90
4687;DHT22;2357;47.316;-1.348;2023-06-26T14:08:10;28.60;99.90
4687;DHT22;2357;47.316;-1.348;2023-06-26T14:10:36;29.00;99.90
4687;DHT22;2357;47.316;-1.348;2023-06-26T14:13:02;28.90;99.90
4687;DHT22;2357;47.316;-1.348;2023-06-26T14:15:29;28.70;99.90
4687;DHT22;2357;47.316;-1.348;2023-06-26T14:17:55;28.70;99.90
4687;DHT22;2357;47.316;-1.348;2023-06-26T14:20:21;28.80;99.90
4687;DHT22;2357;47.316;-1.348;2023-06-26T14:22:48;28.90;99.90
4687;DHT22;2357;47.316;-1.348;2023-06-26T14:25:15;28.60;99.90
4687;DHT22;2357;47.316;-1.348;2023-06-26T14:27:41;28.60;99.90
4687;DHT22;2357;47.316;-1.348;2023-06-26T14:30:08;27.60;99.90
4687;DHT22;2357;47.316;-1.348;2023-06-26T14:32:34;28.40;99.90
4687;DHT22;2357;47.316;-1.348;2023-06-26T14:35:00;28.40;99.90
4687;DHT22;2357;47.316;-1.348;2023-06-26T14:37:28;28.60;99.90
4687;DHT22;2357;47.316;-1.348;2023-06-26T14:39:54;29.00;99.90
4687;DHT22;2357;47.316;-1.348;2023-06-26T14:42:20;29.10;99.90
4687;DHT22;2357;47.316;-1.348;2023-06-26T14:44:45;29.40;99.90
4687;DHT22;2357;47.316;-1.348;2023-06-26T14:47:19;28.80;99.90
4687;DHT22;2357;47.316;-1.348;2023-06-26T14:49:44;29.60;99.90
4687;DHT22;2357;47.316;-1.348;2023-06-26T14:52:10;29.30;99.90
4687;DHT22;2357;47.316;-1.348;2023-06-26T14:54:36;29.80;99.90
4687;DHT22;2357;47.316;-1.348;2023-06-26T14:57:05;29.50;99.90
4687;DHT22;2357;47.316;-1.348;2023-06-26T14:59:31;29.40;99.90
4687;DHT22;2357;47.316;-1.348;2023-06-26T15:01:56;28.90;99.90
4687;DHT22;2357;47.316;-1.348;2023-06-26T15:04:22;28.80;99.90
4687;DHT22;2357;47.316;-1.348;2023-06-26T15:06:48;29.00;99.90
4687;DHT22;2357;47.316;-1.348;2023-06-26T15:09:14;28.80;99.90
4687;DHT22;2357;47.316;-1.348;2023-06-26T15:11:39;29.10;99.90
4687;DHT22;2357;47.316;-1.348;2023-06-26T15:14:05;29.20;99.90
4687;DHT22;2357;47.316;-1.348;2023-06-26T15:16:31;29.30;99.90
4687;DHT22;2357;47.316;-1.348;2023-06-26T15:18:56;29.30;99.90
4687;DHT22;2357;47.316;-1.348;2023-06-26T15:21:22;29.50;99.90
4687;DHT22;2357;47.316;-1.348;2023-06-26T15:23:49;29.60;99.90
4687;DHT22;2357;47.316;-1.348;2023-06-26T15:26:15;29.00;99.90
4687;DHT22;2357;47.316;-1.348;2023-06-26T15:28:40;29.20;99.90
4687;DHT22;2357;47.316;-1.348;2023-06-26T15:31:06;29.10;99.90
4687;DHT22;2357;47.316;-1.348;2023-06-26T15:33:32;29.20;99.90
4687;DHT22;2357;47.316;-1.348;2023-06-26T15:35:57;28.80;99.90
4687;DHT22;2357;47.316;-1.348;2023-06-26T15:38:23;28.60;99.90
4687;DHT22;2357;47.316;-1.348;2023-06-26T15:40:49;28.90;99.90
4687;DHT22;2357;47.316;-1.348;2023-06-26T15:43:14;28.90;99.90
4687;DHT22;2357;47.316;-1.348;2023-06-26T15:45:40;29.10;99.90
4687;DHT22;2357;47.316;-1.348;2023-06-26T15:48:06;29.40;99.90
4687;DHT22;2357;47.316;-1.348;2023-06-26T15:50:32;29.30;99.90
4687;DHT22;2357;47.316;-1.348;2023-06-26T15:52:57;29.20;99.90
4687;DHT22;2357;47.316;-1.348;2023-06-26T15:55:23;29.20;99.90